sensor_id;sensor_type;location;lat;lon;timestamp;temperature;humidity
33247;DHT22;19606;50.108;19.804;2023-01-13T00:00:55;2.20;99.90
33247;DHT22;19606;50.108;19.804;2023-01-13T00:03:20;2.90;99.90
33247;DHT22;19606;50.108;19.804;2023-01-13T00:05:46;1.60;99.90
33247;DHT22;19606;50.108;19.804;2023-01-13T00:08:11;1.60;99.90
33247;DHT22;19606;50.108;19.804;2023-01-13T00:10:37;1.70;99.90
33247;DHT22;19606;50.108;19.804;2023-01-13T00:13:04;1.70;99.90
33247;DHT22;19606;50.108;19.804;2023-01-13T00:15:30;1.70;99.90
33247;DHT22;19606;50.108;19.804;2023-01-13T00:17:55;1.70;99.90
33247;DHT22;19606;50.108;19.804;2023-01-13T00:20:21;3.80;99.90
33247;DHT22;19606;50.108;19.804;2023-01-13T00:22:47;2.80;99.90
33247;DHT22;19606;50.108;19.804;2023-01-13T00:25:12;2.50;99.90
33247;DHT22;19606;50.108;19.804;2023-01-13T00:27:38;2.90;99.90
33247;DHT22;19606;50.108;19.804;2023-01-13T00:30:06;2.80;99.90
33247;DHT22;19606;50.108;19.804;2023-01-13T00:32:32;1.60;99.90
33247;DHT22;19606;50.108;19.804;2023-01-13T00:34:58;1.50;99.90
33247;DHT22;19606;50.108;19.804;2023-01-13T00:37:24;2.00;99.90
33247;DHT22;19606;50.108;19.804;2023-01-13T00:39:50;2.90;99.90
33247;DHT22;19606;50.108;19.804;2023-01-13T00:42:16;0.60;99.90
33247;DHT22;19606;50.108;19.804;2023-01-13T00:45:01;2.70;99.90
33247;DHT22;19606;50.108;19.804;2023-01-13T00:47:27;1.10;99.90
33247;DHT22;19606;50.108;19.804;2023-01-13T00:49:52;1.60;99.90
33247;DHT22;19606;50.108;19.804;2023-01-13T00:54:44;0.60;99.90
33247;DHT22;19606;50.108;19.804;2023-01-13T00:57:09;0.80;99.90
33247;DHT22;19606;50.108;19.804;2023-01-13T00:59:35;2.80;99.90
33247;DHT22;19606;50.108;19.804;2023-01-13T01:02:01;3.00;99.90
33247;DHT22;19606;50.108;19.804;2023-01-13T01:04:26;1.10;99.90
33247;DHT22;19606;50.108;19.804;2023-01-13T01:06:53;1.80;99.90
33247;DHT22;19606;50.108;19.804;2023-01-13T01:09:19;1.10;99.90
33247;DHT22;19606;50.108;19.804;2023-01-13T01:11:44;2.30;99.90
33247;DHT22;19606;50.108;19.804;2023-01-13T01:14:12;2.40;99.90
33247;DHT22;19606;50.108;19.804;2023-01-13T01:16:39;3.00;99.90
33247;DHT22;19606;50.108;19.804;2023-01-13T01:19:05;0.90;99.90
33247;DHT22;19606;50.108;19.804;2023-01-13T01:21:31;1.90;99.90
33247;DHT22;19606;50.108;19.804;2023-01-13T01:23:59;2.60;99.90
33247;DHT22;19606;50.108;19.804;2023-01-13T01:26:27;2.00;99.90
33247;DHT22;19606;50.108;19.804;2023-01-13T01:28:53;2.30;99.90
33247;DHT22;19606;50.108;19.804;2023-01-13T01:31:25;2.30;99.90
33247;DHT22;19606;50.108;19.804;2023-01-13T01:33:52;1.00;99.90
33247;DHT22;19606;50.108;19.804;2023-01-13T01:36:19;2.60;99.90
33247;DHT22;19606;50.108;19.804;2023-01-13T01:38:45;1.80;99.90
33247;DHT22;19606;50.108;19.804;2023-01-13T01:41:17;2.50;99.90
33247;DHT22;19606;50.108;19.804;2023-01-13T01:46:27;1.80;99.90
33247;DHT22;19606;50.108;19.804;2023-01-13T01:48:56;1.00;99.90
33247;DHT22;19606;50.108;19.804;2023-01-13T01:51:23;1.60;99.90
33247;DHT22;19606;50.108;19.804;2023-01-13T01:53:49;2.10;99.90
33247;DHT22;19606;50.108;19.804;2023-01-13T01:56:18;1.20;99.90
33247;DHT22;19606;50.108;19.804;2023-01-13T02:01:13;1.30;99.90
33247;DHT22;19606;50.108;19.804;2023-01-13T02:03:43;1.40;99.90
33247;DHT22;19606;50.108;19.804;2023-01-13T02:06:12;2.00;99.90
33247;DHT22;19606;50.108;19.804;2023-01-13T02:08:39;1.20;99.90
33247;DHT22;19606;50.108;19.804;2023-01-13T02:11:06;1.70;99.90
33247;DHT22;19606;50.108;19.804;2023-01-13T02:13:52;1.10;99.90
33247;DHT22;19606;50.108;19.804;2023-01-13T02:16:21;1.10;99.90
33247;DHT22;19606;50.108;19.804;2023-01-13T02:19:17;0.80;99.90
33247;DHT22;19606;50.108;19.804;2023-01-13T02:33:25;0.60;99.90
33247;DHT22;19606;50.108;19.804;2023-01-13T02:38:32;0.50;99.90
33247;DHT22;19606;50.108;19.804;2023-01-13T02:41:14;2.10;99.90
33247;DHT22;19606;50.108;19.804;2023-01-13T02:44:03;2.70;99.90
33247;DHT22;19606;50.108;19.804;2023-01-13T02:46:51;0.30;99.90
33247;DHT22;19606;50.108;19.804;2023-01-13T02:49:33;0.20;99.90
33247;DHT22;19606;50.108;19.804;2023-01-13T02:52:23;0.10;99.90
33247;DHT22;19606;50.108;19.804;2023-01-13T02:55:21;0.10;99.90
33247;DHT22;19606;50.108;19.804;2023-01-13T02:57:49;0.20;99.90
33247;DHT22;19606;50.108;19.804;2023-01-13T03:00:17;1.90;99.90
33247;DHT22;19606;50.108;19.804;2023-01-13T03:02:44;0.10;99.90
33247;DHT22;19606;50.108;19.804;2023-01-13T03:05:14;1.30;99.90
33247;DHT22;19606;50.108;19.804;2023-01-13T03:07:46;0.20;99.90
33247;DHT22;19606;50.108;19.804;2023-01-13T03:10:49;0.30;99.90
33247;DHT22;19606;50.108;19.804;2023-01-13T03:21:53;0.40;99.90
33247;DHT22;19606;50.108;19.804;2023-01-13T03:29:37;0.50;99.90
33247;DHT22;19606;50.108;19.804;2023-01-13T03:35:20;0.60;99.90
33247;DHT22;19606;50.108;19.804;2023-01-13T03:40:01;0.60;99.90
33247;DHT22;19606;50.108;19.804;2023-01-13T03:42:30;1.60;99.90
33247;DHT22;19606;50.108;19.804;2023-01-13T03:50:33;1.00;99.90
33247;DHT22;19606;50.108;19.804;2023-01-13T03:53:11;1.00;99.90
33247;DHT22;19606;50.108;19.804;2023-01-13T03:55:46;2.50;99.90
33247;DHT22;19606;50.108;19.804;2023-01-13T03:58:42;2.50;99.90
33247;DHT22;19606;50.108;19.804;2023-01-13T04:06:28;3.30;99.90
33247;DHT22;19606;50.108;19.804;2023-01-13T04:09:04;3.70;99.90
33247;DHT22;19606;50.108;19.804;2023-01-13T04:11:36;3.30;99.90
33247;DHT22;19606;50.108;19.804;2023-01-13T04:14:03;3.60;99.90
33247;DHT22;19606;50.108;19.804;2023-01-13T04:16:31;4.50;99.90
33247;DHT22;19606;50.108;19.804;2023-01-13T04:18:56;5.00;99.90
33247;DHT22;19606;50.108;19.804;2023-01-13T04:21:22;4.80;99.90
33247;DHT22;19606;50.108;19.804;2023-01-13T04:23:48;5.20;99.90
33247;DHT22;19606;50.108;19.804;2023-01-13T04:26:16;5.60;99.90
33247;DHT22;19606;50.108;19.804;2023-01-13T04:28:44;5.70;99.90
33247;DHT22;19606;50.108;19.804;2023-01-13T04:31:10;5.90;99.90
33247;DHT22;19606;50.108;19.804;2023-01-13T04:33:36;5.90;99.90
33247;DHT22;19606;50.108;19.804;2023-01-13T04:36:02;6.00;99.90
33247;DHT22;19606;50.108;19.804;2023-01-13T04:38:27;5.60;99.90
33247;DHT22;19606;50.108;19.804;2023-01-13T04:40:53;5.70;99.90
33247;DHT22;19606;50.108;19.804;2023-01-13T04:43:19;5.90;99.90
33247;DHT22;19606;50.108;19.804;2023-01-13T04:45:44;6.00;99.90
33247;DHT22;19606;50.108;19.804;2023-01-13T04:48:10;6.30;99.90
33247;DHT22;19606;50.108;19.804;2023-01-13T04:50:36;6.20;99.90
33247;DHT22;19606;50.108;19.804;2023-01-13T04:53:01;6.10;99.90
33247;DHT22;19606;50.108;19.804;2023-01-13T04:55:27;6.10;99.90
33247;DHT22;19606;50.108;19.804;2023-01-13T04:57:53;6.30;99.90
33247;DHT22;19606;50.108;19.804;2023-01-13T05:00:21;6.10;99.90
33247;DHT22;19606;50.108;19.804;2023-01-13T05:02:50;6.10;99.90
33247;DHT22;19606;50.108;19.804;2023-01-13T05:05:16;6.30;99.90
33247;DHT22;19606;50.108;19.804;2023-01-13T05:07:42;6.40;99.90
33247;DHT22;19606;50.108;19.804;2023-01-13T05:10:08;6.60;99.90
33247;DHT22;19606;50.108;19.804;2023-01-13T05:12:34;6.40;99.90
33247;DHT22;19606;50.108;19.804;2023-01-13T05:15:18;6.50;99.90
33247;DHT22;19606;50.108;19.804;2023-01-13T05:18:03;6.60;99.90
33247;DHT22;19606;50.108;19.804;2023-01-13T05:20:28;6.50;99.90
33247;DHT22;19606;50.108;19.804;2023-01-13T05:22:54;6.90;99.90
33247;DHT22;19606;50.108;19.804;2023-01-13T05:25:40;6.40;99.90
33247;DHT22;19606;50.108;19.804;2023-01-13T05:28:06;6.60;99.90
33247;DHT22;19606;50.108;19.804;2023-01-13T05:30:36;6.30;99.90
33247;DHT22;19606;50.108;19.804;2023-01-13T05:33:02;6.60;99.90
33247;DHT22;19606;50.108;19.804;2023-01-13T05:35:28;6.30;99.90
33247;DHT22;19606;50.108;19.804;2023-01-13T05:37:54;6.40;99.90
33247;DHT22;19606;50.108;19.804;2023-01-13T05:40:20;6.20;99.90
33247;DHT22;19606;50.108;19.804;2023-01-13T05:43:15;6.10;99.90
33247;DHT22;19606;50.108;19.804;2023-01-13T05:45:57;6.00;99.90
33247;DHT22;19606;50.108;19.804;2023-01-13T05:48:31;6.10;99.90
33247;DHT22;19606;50.108;19.804;2023-01-13T05:50:58;6.20;99.90
33247;DHT22;19606;50.108;19.804;2023-01-13T05:53:24;6.80;99.90
33247;DHT22;19606;50.108;19.804;2023-01-13T05:55:50;6.20;99.90
33247;DHT22;19606;50.108;19.804;2023-01-13T05:58:17;6.10;99.90
33247;DHT22;19606;50.108;19.804;2023-01-13T06:00:43;6.40;99.90
33247;DHT22;19606;50.108;19.804;2023-01-13T06:03:10;6.40;99.90
33247;DHT22;19606;50.108;19.804;2023-01-13T06:05:36;6.40;99.90
33247;DHT22;19606;50.108;19.804;2023-01-13T06:08:04;6.10;99.90
33247;DHT22;19606;50.108;19.804;2023-01-13T06:10:31;6.20;99.90
33247;DHT22;19606;50.108;19.804;2023-01-13T06:12:57;6.20;99.90
33247;DHT22;19606;50.108;19.804;2023-01-13T06:15:23;6.30;99.90
33247;DHT22;19606;50.108;19.804;2023-01-13T06:17:49;6.50;99.90
33247;DHT22;19606;50.108;19.804;2023-01-13T06:20:16;6.90;85.80
33247;DHT22;19606;50.108;19.804;2023-01-13T06:22:44;6.80;72.70
33247;DHT22;19606;50.108;19.804;2023-01-13T06:28:02;6.80;71.30
33247;DHT22;19606;50.108;19.804;2023-01-13T06:30:31;6.80;62.20
33247;DHT22;19606;50.108;19.804;2023-01-13T06:33:00;7.00;42.00
33247;DHT22;19606;50.108;19.804;2023-01-13T06:35:32;6.90;52.00
33247;DHT22;19606;50.108;19.804;2023-01-13T06:38:01;6.90;48.90
33247;DHT22;19606;50.108;19.804;2023-01-13T06:40:28;6.90;49.50
33247;DHT22;19606;50.108;19.804;2023-01-13T06:42:55;7.00;46.10
33247;DHT22;19606;50.108;19.804;2023-01-13T06:45:47;7.00;21.10
33247;DHT22;19606;50.108;19.804;2023-01-13T06:48:14;6.80;44.90
33247;DHT22;19606;50.108;19.804;2023-01-13T06:50:40;7.00;23.00
33247;DHT22;19606;50.108;19.804;2023-01-13T06:53:07;6.90;30.40
33247;DHT22;19606;50.108;19.804;2023-01-13T06:55:32;6.90;14.20
33247;DHT22;19606;50.108;19.804;2023-01-13T06:57:58;7.00;13.00
33247;DHT22;19606;50.108;19.804;2023-01-13T07:00:24;7.00;16.40
33247;DHT22;19606;50.108;19.804;2023-01-13T07:02:50;6.90;12.00
33247;DHT22;19606;50.108;19.804;2023-01-13T07:05:17;6.90;16.60
33247;DHT22;19606;50.108;19.804;2023-01-13T07:07:43;6.90;6.80
33247;DHT22;19606;50.108;19.804;2023-01-13T07:10:14;7.00;1.00
33247;DHT22;19606;50.108;19.804;2023-01-13T07:12:47;7.00;1.00
33247;DHT22;19606;50.108;19.804;2023-01-13T07:15:31;7.00;4.90
33247;DHT22;19606;50.108;19.804;2023-01-13T07:17:58;6.90;12.50
33247;DHT22;19606;50.108;19.804;2023-01-13T07:20:23;7.00;1.00
33247;DHT22;19606;50.108;19.804;2023-01-13T07:22:53;7.00;4.70
33247;DHT22;19606;50.108;19.804;2023-01-13T07:25:19;7.00;4.10
33247;DHT22;19606;50.108;19.804;2023-01-13T07:27:45;7.20;1.10
33247;DHT22;19606;50.108;19.804;2023-01-13T07:30:11;7.00;1.00
33247;DHT22;19606;50.108;19.804;2023-01-13T07:32:37;7.00;1.00
33247;DHT22;19606;50.108;19.804;2023-01-13T07:35:03;7.00;1.00
33247;DHT22;19606;50.108;19.804;2023-01-13T07:37:34;7.00;1.00
33247;DHT22;19606;50.108;19.804;2023-01-13T07:40:01;7.20;1.00
33247;DHT22;19606;50.108;19.804;2023-01-13T07:42:26;7.00;1.00
33247;DHT22;19606;50.108;19.804;2023-01-13T07:45:11;7.00;1.00
33247;DHT22;19606;50.108;19.804;2023-01-13T07:47:37;7.10;1.00
33247;DHT22;19606;50.108;19.804;2023-01-13T07:50:06;7.20;1.00
33247;DHT22;19606;50.108;19.804;2023-01-13T07:52:32;7.10;1.00
33247;DHT22;19606;50.108;19.804;2023-01-13T07:54:58;7.30;1.00
33247;DHT22;19606;50.108;19.804;2023-01-13T07:57:23;7.30;1.00
33247;DHT22;19606;50.108;19.804;2023-01-13T07:59:49;7.20;1.00
33247;DHT22;19606;50.108;19.804;2023-01-13T08:02:15;7.30;1.00
33247;DHT22;19606;50.108;19.804;2023-01-13T08:04:40;7.20;1.00
33247;DHT22;19606;50.108;19.804;2023-01-13T08:07:06;7.20;1.00
33247;DHT22;19606;50.108;19.804;2023-01-13T08:09:32;7.30;1.00
33247;DHT22;19606;50.108;19.804;2023-01-13T08:11:58;7.30;1.00
33247;DHT22;19606;50.108;19.804;2023-01-13T08:14:42;7.40;1.00
33247;DHT22;19606;50.108;19.804;2023-01-13T08:17:08;7.60;1.00
33247;DHT22;19606;50.108;19.804;2023-01-13T08:19:34;7.80;1.00
33247;DHT22;19606;50.108;19.804;2023-01-13T08:21:59;7.50;1.00
33247;DHT22;19606;50.108;19.804;2023-01-13T08:24:25;7.80;1.00
33247;DHT22;19606;50.108;19.804;2023-01-13T08:26:51;7.60;1.00
33247;DHT22;19606;50.108;19.804;2023-01-13T08:31:43;9.40;1.00
33247;DHT22;19606;50.108;19.804;2023-01-13T08:34:11;7.70;1.00
33247;DHT22;19606;50.108;19.804;2023-01-13T08:36:37;7.80;1.00
33247;DHT22;19606;50.108;19.804;2023-01-13T08:39:03;7.70;1.00
33247;DHT22;19606;50.108;19.804;2023-01-13T08:41:29;7.80;1.00
33247;DHT22;19606;50.108;19.804;2023-01-13T08:44:13;8.00;1.00
33247;DHT22;19606;50.108;19.804;2023-01-13T08:46:40;8.00;1.00
33247;DHT22;19606;50.108;19.804;2023-01-13T08:49:06;8.10;1.00
33247;DHT22;19606;50.108;19.804;2023-01-13T08:51:32;8.20;1.00
33247;DHT22;19606;50.108;19.804;2023-01-13T08:53:57;8.50;1.00
33247;DHT22;19606;50.108;19.804;2023-01-13T08:56:23;8.50;1.00
33247;DHT22;19606;50.108;19.804;2023-01-13T08:58:49;8.70;1.00
33247;DHT22;19606;50.108;19.804;2023-01-13T09:01:18;8.80;1.00
33247;DHT22;19606;50.108;19.804;2023-01-13T09:03:45;8.80;1.00
33247;DHT22;19606;50.108;19.804;2023-01-13T09:06:11;8.90;1.00
33247;DHT22;19606;50.108;19.804;2023-01-13T09:08:36;9.10;1.00
33247;DHT22;19606;50.108;19.804;2023-01-13T09:11:02;9.30;1.00
33247;DHT22;19606;50.108;19.804;2023-01-13T09:16:13;9.70;99.90
33247;DHT22;19606;50.108;19.804;2023-01-13T09:21:05;10.30;99.90
33247;DHT22;19606;50.108;19.804;2023-01-13T09:23:31;9.80;1.00
33247;DHT22;19606;50.108;19.804;2023-01-13T09:25:56;8.90;1.00
33247;DHT22;19606;50.108;19.804;2023-01-13T09:38:26;9.40;99.90
33247;DHT22;19606;50.108;19.804;2023-01-13T10:09:03;9.70;1.00
33247;DHT22;19606;50.108;19.804;2023-01-13T10:11:35;9.70;99.90
33247;DHT22;19606;50.108;19.804;2023-01-13T10:14:33;9.80;1.00
33247;DHT22;19606;50.108;19.804;2023-01-13T10:19:56;9.90;1.00
33247;DHT22;19606;50.108;19.804;2023-01-13T10:27:51;9.90;99.90
33247;DHT22;19606;50.108;19.804;2023-01-13T10:32:57;10.00;99.90
33247;DHT22;19606;50.108;19.804;2023-01-13T10:38:21;10.10;1.00
33247;DHT22;19606;50.108;19.804;2023-01-13T10:45:40;10.10;1.00
33247;DHT22;19606;50.108;19.804;2023-01-13T10:48:12;10.20;99.90
33247;DHT22;19606;50.108;19.804;2023-01-13T10:50:39;10.10;1.00
33247;DHT22;19606;50.108;19.804;2023-01-13T10:53:23;10.10;1.00
33247;DHT22;19606;50.108;19.804;2023-01-13T10:56:15;10.20;1.00
33247;DHT22;19606;50.108;19.804;2023-01-13T10:58:41;10.30;58.70
33247;DHT22;19606;50.108;19.804;2023-01-13T11:01:21;10.30;99.90
33247;DHT22;19606;50.108;19.804;2023-01-13T11:03:51;10.40;1.00
33247;DHT22;19606;50.108;19.804;2023-01-13T11:06:26;10.30;99.90
33247;DHT22;19606;50.108;19.804;2023-01-13T11:08:54;10.20;73.40
33247;DHT22;19606;50.108;19.804;2023-01-13T11:11:41;10.20;1.00
33247;DHT22;19606;50.108;19.804;2023-01-13T11:14:40;10.20;1.00
33247;DHT22;19606;50.108;19.804;2023-01-13T11:19:43;10.20;70.30
33247;DHT22;19606;50.108;19.804;2023-01-13T11:22:19;10.10;1.00
33247;DHT22;19606;50.108;19.804;2023-01-13T11:24:59;10.10;1.00
33247;DHT22;19606;50.108;19.804;2023-01-13T11:27:45;10.10;99.90
33247;DHT22;19606;50.108;19.804;2023-01-13T11:35:44;10.10;99.90
33247;DHT22;19606;50.108;19.804;2023-01-13T11:43:48;10.30;1.00
33247;DHT22;19606;50.108;19.804;2023-01-13T11:46:14;10.30;99.90
33247;DHT22;19606;50.108;19.804;2023-01-13T11:54:04;10.30;99.90
33247;DHT22;19606;50.108;19.804;2023-01-13T12:15:39;11.00;99.90
33247;DHT22;19606;50.108;19.804;2023-01-13T12:21:24;10.70;99.90
33247;DHT22;19606;50.108;19.804;2023-01-13T12:26:30;10.60;99.90
33247;DHT22;19606;50.108;19.804;2023-01-13T12:31:25;10.60;1.00
33247;DHT22;19606;50.108;19.804;2023-01-13T12:34:30;10.50;99.90
33247;DHT22;19606;50.108;19.804;2023-01-13T12:40:01;10.60;1.00
33247;DHT22;19606;50.108;19.804;2023-01-13T12:45:36;10.50;1.00
33247;DHT22;19606;50.108;19.804;2023-01-13T12:48:04;10.40;1.00
33247;DHT22;19606;50.108;19.804;2023-01-13T12:52:57;10.40;99.90
33247;DHT22;19606;50.108;19.804;2023-01-13T13:00:59;10.50;30.90
33247;DHT22;19606;50.108;19.804;2023-01-13T13:03:33;10.30;99.90
33247;DHT22;19606;50.108;19.804;2023-01-13T13:14:03;10.10;1.00
33247;DHT22;19606;50.108;19.804;2023-01-13T13:29:57;10.10;1.00
33247;DHT22;19606;50.108;19.804;2023-01-13T13:56:20;10.00;1.00
33247;DHT22;19606;50.108;19.804;2023-01-13T14:01:28;10.00;99.90
33247;DHT22;19606;50.108;19.804;2023-01-13T14:29:21;9.70;1.00
33247;DHT22;19606;50.108;19.804;2023-01-13T14:46:42;9.40;1.00
33247;DHT22;19606;50.108;19.804;2023-01-13T15:15:27;9.20;1.00
33247;DHT22;19606;50.108;19.804;2023-01-13T15:17:53;9.20;1.00
33247;DHT22;19606;50.108;19.804;2023-01-13T15:20:21;9.10;1.00
33247;DHT22;19606;50.108;19.804;2023-01-13T15:25:14;9.20;54.90
33247;DHT22;19606;50.108;19.804;2023-01-13T15:27:42;9.20;99.90
33247;DHT22;19606;50.108;19.804;2023-01-13T15:30:22;9.20;82.10
33247;DHT22;19606;50.108;19.804;2023-01-13T15:35:18;9.10;99.90
33247;DHT22;19606;50.108;19.804;2023-01-13T15:37:45;8.80;99.90
33247;DHT22;19606;50.108;19.804;2023-01-13T15:40:31;9.00;99.90
33247;DHT22;19606;50.108;19.804;2023-01-13T15:42:57;9.00;99.90
33247;DHT22;19606;50.108;19.804;2023-01-13T15:45:42;9.10;99.90
33247;DHT22;19606;50.108;19.804;2023-01-13T15:48:28;9.10;99.90
33247;DHT22;19606;50.108;19.804;2023-01-13T15:50:56;9.00;99.90
33247;DHT22;19606;50.108;19.804;2023-01-13T15:53:22;9.00;99.90
33247;DHT22;19606;50.108;19.804;2023-01-13T15:55:55;8.90;1.00
33247;DHT22;19606;50.108;19.804;2023-01-13T15:58:26;9.20;99.90
33247;DHT22;19606;50.108;19.804;2023-01-13T16:05:45;8.80;99.90
33247;DHT22;19606;50.108;19.804;2023-01-13T16:08:20;9.00;1.00
33247;DHT22;19606;50.108;19.804;2023-01-13T16:10:47;8.90;1.00
33247;DHT22;19606;50.108;19.804;2023-01-13T16:13:15;8.90;1.00
33247;DHT22;19606;50.108;19.804;2023-01-13T16:15:46;9.20;99.90
33247;DHT22;19606;50.108;19.804;2023-01-13T16:18:18;9.30;99.90
33247;DHT22;19606;50.108;19.804;2023-01-13T16:28:03;9.20;99.90
33247;DHT22;19606;50.108;19.804;2023-01-13T16:30:34;9.00;99.90
33247;DHT22;19606;50.108;19.804;2023-01-13T16:33:00;9.00;99.90
33247;DHT22;19606;50.108;19.804;2023-01-13T16:40:29;9.00;99.90
33247;DHT22;19606;50.108;19.804;2023-01-13T16:42:55;9.00;99.90
33247;DHT22;19606;50.108;19.804;2023-01-13T16:45:22;9.00;99.90
33247;DHT22;19606;50.108;19.804;2023-01-13T16:47:47;8.90;99.90
33247;DHT22;19606;50.108;19.804;2023-01-13T16:50:36;8.90;99.90
33247;DHT22;19606;50.108;19.804;2023-01-13T16:53:04;9.10;99.90
33247;DHT22;19606;50.108;19.804;2023-01-13T16:57:56;8.90;99.90
33247;DHT22;19606;50.108;19.804;2023-01-13T17:00:22;8.80;1.00
33247;DHT22;19606;50.108;19.804;2023-01-13T17:02:48;8.70;1.00
33247;DHT22;19606;50.108;19.804;2023-01-13T17:10:15;8.80;1.00
33247;DHT22;19606;50.108;19.804;2023-01-13T17:12:40;8.60;1.00
33247;DHT22;19606;50.108;19.804;2023-01-13T17:15:08;8.40;1.00
33247;DHT22;19606;50.108;19.804;2023-01-13T17:20:00;7.80;1.00
33247;DHT22;19606;50.108;19.804;2023-01-13T17:22:25;8.50;1.00
33247;DHT22;19606;50.108;19.804;2023-01-13T17:24:51;8.30;1.00
33247;DHT22;19606;50.108;19.804;2023-01-13T17:32:19;8.50;1.00
33247;DHT22;19606;50.108;19.804;2023-01-13T17:34:45;8.00;1.00
33247;DHT22;19606;50.108;19.804;2023-01-13T17:37:11;8.30;1.00
33247;DHT22;19606;50.108;19.804;2023-01-13T17:44:34;8.30;1.00
33247;DHT22;19606;50.108;19.804;2023-01-13T17:46:59;8.40;1.00
33247;DHT22;19606;50.108;19.804;2023-01-13T17:51:51;8.30;1.00
33247;DHT22;19606;50.108;19.804;2023-01-13T17:54:17;8.30;1.00
33247;DHT22;19606;50.108;19.804;2023-01-13T17:59:11;9.40;1.00
33247;DHT22;19606;50.108;19.804;2023-01-13T18:13:52;8.20;1.00
33247;DHT22;19606;50.108;19.804;2023-01-13T18:16:28;8.10;1.00
33247;DHT22;19606;50.108;19.804;2023-01-13T18:21:40;8.00;1.00
33247;DHT22;19606;50.108;19.804;2023-01-13T18:24:25;8.10;1.00
33247;DHT22;19606;50.108;19.804;2023-01-13T18:27:13;8.10;1.00
33247;DHT22;19606;50.108;19.804;2023-01-13T18:29:56;8.00;1.00
33247;DHT22;19606;50.108;19.804;2023-01-13T18:34:50;8.10;1.00
33247;DHT22;19606;50.108;19.804;2023-01-13T18:37:16;8.20;1.00
33247;DHT22;19606;50.108;19.804;2023-01-13T18:42:09;8.00;1.00
33247;DHT22;19606;50.108;19.804;2023-01-13T18:44:54;8.10;1.00
33247;DHT22;19606;50.108;19.804;2023-01-13T18:47:23;8.00;1.00
33247;DHT22;19606;50.108;19.804;2023-01-13T18:49:48;8.00;1.00
33247;DHT22;19606;50.108;19.804;2023-01-13T18:52:14;7.90;1.00
33247;DHT22;19606;50.108;19.804;2023-01-13T18:54:40;8.00;1.00
33247;DHT22;19606;50.108;19.804;2023-01-13T18:59:33;8.00;1.00
33247;DHT22;19606;50.108;19.804;2023-01-13T19:02:00;8.00;1.00
33247;DHT22;19606;50.108;19.804;2023-01-13T19:06:52;7.90;1.00
33247;DHT22;19606;50.108;19.804;2023-01-13T19:09:21;8.00;1.00
33247;DHT22;19606;50.108;19.804;2023-01-13T19:11:51;8.00;1.00
33247;DHT22;19606;50.108;19.804;2023-01-13T19:14:18;7.90;1.00
33247;DHT22;19606;50.108;19.804;2023-01-13T19:17:01;7.90;1.00
33247;DHT22;19606;50.108;19.804;2023-01-13T19:21:53;7.80;3.80
33247;DHT22;19606;50.108;19.804;2023-01-13T19:34:05;7.40;99.90
33247;DHT22;19606;50.108;19.804;2023-01-13T19:41:23;7.40;99.90
33247;DHT22;19606;50.108;19.804;2023-01-13T19:44:10;7.30;99.90
33247;DHT22;19606;50.108;19.804;2023-01-13T19:46:54;7.20;99.90
33247;DHT22;19606;50.108;19.804;2023-01-13T19:49:20;7.10;99.90
33247;DHT22;19606;50.108;19.804;2023-01-13T19:51:45;7.00;99.90
33247;DHT22;19606;50.108;19.804;2023-01-13T19:54:11;6.90;99.90
33247;DHT22;19606;50.108;19.804;2023-01-13T19:56:37;6.80;99.90
33247;DHT22;19606;50.108;19.804;2023-01-13T19:59:02;6.80;99.90
33247;DHT22;19606;50.108;19.804;2023-01-13T20:01:28;6.70;99.90
33247;DHT22;19606;50.108;19.804;2023-01-13T20:04:00;6.70;99.90
33247;DHT22;19606;50.108;19.804;2023-01-13T20:06:32;6.70;99.90
33247;DHT22;19606;50.108;19.804;2023-01-13T20:08:58;6.60;99.90
33247;DHT22;19606;50.108;19.804;2023-01-13T20:11:24;6.60;99.90
33247;DHT22;19606;50.108;19.804;2023-01-13T20:13:59;6.50;99.90
33247;DHT22;19606;50.108;19.804;2023-01-13T20:16:28;6.50;99.90
33247;DHT22;19606;50.108;19.804;2023-01-13T20:18:55;6.50;99.90
33247;DHT22;19606;50.108;19.804;2023-01-13T20:21:21;6.30;99.90
33247;DHT22;19606;50.108;19.804;2023-01-13T20:23:51;6.30;99.90
33247;DHT22;19606;50.108;19.804;2023-01-13T20:26:18;6.30;99.90
33247;DHT22;19606;50.108;19.804;2023-01-13T20:28:45;6.30;99.90
33247;DHT22;19606;50.108;19.804;2023-01-13T20:31:17;6.30;99.90
33247;DHT22;19606;50.108;19.804;2023-01-13T20:33:42;6.20;99.90
33247;DHT22;19606;50.108;19.804;2023-01-13T20:36:26;6.30;99.90
33247;DHT22;19606;50.108;19.804;2023-01-13T20:39:00;6.50;99.90
33247;DHT22;19606;50.108;19.804;2023-01-13T20:41:26;6.30;99.90
33247;DHT22;19606;50.108;19.804;2023-01-13T20:44:11;6.30;99.90
33247;DHT22;19606;50.108;19.804;2023-01-13T20:46:41;6.30;99.90
33247;DHT22;19606;50.108;19.804;2023-01-13T20:49:09;6.30;99.90
33247;DHT22;19606;50.108;19.804;2023-01-13T20:51:36;6.20;99.90
33247;DHT22;19606;50.108;19.804;2023-01-13T20:54:04;6.30;99.90
33247;DHT22;19606;50.108;19.804;2023-01-13T20:56:30;6.30;99.90
33247;DHT22;19606;50.108;19.804;2023-01-13T20:58:56;6.40;99.90
33247;DHT22;19606;50.108;19.804;2023-01-13T21:01:24;6.40;99.90
33247;DHT22;19606;50.108;19.804;2023-01-13T21:03:57;6.40;99.90
33247;DHT22;19606;50.108;19.804;2023-01-13T21:06:27;6.50;99.90
33247;DHT22;19606;50.108;19.804;2023-01-13T21:08:53;6.70;99.90
33247;DHT22;19606;50.108;19.804;2023-01-13T21:11:21;6.30;99.90
33247;DHT22;19606;50.108;19.804;2023-01-13T21:14:11;6.40;99.90
33247;DHT22;19606;50.108;19.804;2023-01-13T21:16:55;6.30;99.90
33247;DHT22;19606;50.108;19.804;2023-01-13T21:19:21;6.20;99.90
33247;DHT22;19606;50.108;19.804;2023-01-13T21:21:46;6.20;99.90
33247;DHT22;19606;50.108;19.804;2023-01-13T21:24:12;6.20;99.90
33247;DHT22;19606;50.108;19.804;2023-01-13T21:26:38;6.10;99.90
33247;DHT22;19606;50.108;19.804;2023-01-13T21:29:05;6.10;99.90
33247;DHT22;19606;50.108;19.804;2023-01-13T21:31:33;6.00;99.90
33247;DHT22;19606;50.108;19.804;2023-01-13T21:33:59;6.00;99.90
33247;DHT22;19606;50.108;19.804;2023-01-13T21:36:26;6.00;99.90
33247;DHT22;19606;50.108;19.804;2023-01-13T21:38:57;5.90;99.90
33247;DHT22;19606;50.108;19.804;2023-01-13T21:41:26;6.30;99.90
33247;DHT22;19606;50.108;19.804;2023-01-13T21:44:19;6.00;99.90
33247;DHT22;19606;50.108;19.804;2023-01-13T21:47:16;6.00;99.90
33247;DHT22;19606;50.108;19.804;2023-01-13T21:50:01;6.10;99.90
33247;DHT22;19606;50.108;19.804;2023-01-13T21:52:27;6.00;99.90
33247;DHT22;19606;50.108;19.804;2023-01-13T21:54:53;5.90;99.90
33247;DHT22;19606;50.108;19.804;2023-01-13T21:57:37;5.90;99.90
33247;DHT22;19606;50.108;19.804;2023-01-13T22:00:04;5.90;99.90
33247;DHT22;19606;50.108;19.804;2023-01-13T22:02:30;5.80;99.90
33247;DHT22;19606;50.108;19.804;2023-01-13T22:05:03;5.70;99.90
33247;DHT22;19606;50.108;19.804;2023-01-13T22:07:30;5.80;99.90
33247;DHT22;19606;50.108;19.804;2023-01-13T22:09:57;5.60;99.90
33247;DHT22;19606;50.108;19.804;2023-01-13T22:12:22;5.90;99.90
33247;DHT22;19606;50.108;19.804;2023-01-13T22:14:52;5.70;99.90